Airfield :
LOGIN :

Register | Disclaimer

   EN    FR    IT 

 










Legend :    VFR   Marginal VFR   IFR   Intensive IFR   Very Intensive IFR
Visi :
Ceiling :
>= 8 km
>= 3000ft
5 to 8 km
1000 to 3000 ft
1500m to 5 km
500 to 1000 ft
800 to 1500m
200 to 500 ft
< 800m
< 200 ft
Symbols :   Thunderstorms  Fog  Heavy snow  Heavy precipitations  Wind > 20 kt
SIGMETs :     Misc.  Thunderstorms  Icing  Turbulence  Mountain Waves  Volcanic Ashes







- Airport Elevation : 423 ft
- IATA code : PIS
- Download approach charts


LFBI - Poitiers

CURRENT METAR :
  • 181730Z AUTO 22008KT CAVOK 11/07 Q1017 NOSIG

EXPIRED METARs :
  • 181700Z AUTO 21010KT CAVOK 13/05 Q1017 BECMG 27005KT
  • 181630Z AUTO 21012KT CAVOK 14/05 Q1017 BECMG 27005KT
  • 181600Z AUTO 20012KT CAVOK 15/05 Q1017 NOSIG
  • 181530Z AUTO 23014KT CAVOK 16/05 Q1017 NOSIG
  • 181500Z AUTO 22015KT CAVOK 16/05 Q1017 NOSIG

TAF TAF LFBI
Valid from the 18 at 18:00 until the 19 at 18:00 UTC


181700Z 1818/1918 24005KT CAVOK
BECMG 1821/1823 30005KT BKN030
TEMPO 1900/1906 4500 -RA SCT010 BKN020
PROB40
TEMPO 1906/1911 BKN005
BECMG 1915/1917 CAVOK
No reported NOTAMs for that airfield.



MET'MAP, your aeronautical weather chart ! - Copyright ORBIFLY December 2007 - Disclaimer

ORBIFLY MET'MAP TEAM :

Programming & Development : Alexandra Zaïnal
Concept & Development : Baudouin d'Aumeries
Co-Development & Prog : Marc-Olivier Méhu
Technical & hardware support : Manuel Goepfert

Contact : metmap@orbifly.com




SOURCES & CREDITS :

   NOAA